Time;durP1;ratioP1;P1;durP2;ratioP2;P2;SDS_P1;SDS_P2;PMS_P1;PMS_P2;Temp;Humidity;BMP_temperature;BMP_pressure;BME280_temperature;BME280_humidity;BME280_pressure;Samples;Min_cycle;Max_cycle;Signal;HPM_P1;HPM_P2
2022/06/18 00:01:41;;;;;;;4.90;4.35;;;;;;;15.18;73.56;93737.53;5029777;28;20021;-38
2022/06/18 00:04:15;;;;;;;5.40;4.90;;;;;;;15.20;74.06;93734.19;5029596;28;20029;-37
2022/06/18 00:06:43;;;;;;;5.50;4.97;;;;;;;15.18;73.63;93731.97;5029580;28;20041;-38
2022/06/18 00:09:11;;;;;;;5.50;5.00;;;;;;;15.00;74.03;93732.53;5028885;28;20566;-38
2022/06/18 00:14:37;;;;;;;5.82;5.30;;;;;;;15.04;74.71;93733.59;4988910;28;20097;-38
2022/06/18 00:17:14;;;;;;;7.63;5.97;;;;;;;15.02;75.05;93729.91;5005056;28;20045;-38
2022/06/18 00:19:40;;;;;;;6.80;5.53;;;;;;;14.93;75.33;93730.56;5009644;28;20419;-38
2022/06/18 00:22:05;;;;;;;7.05;5.32;;;;;;;14.85;75.79;93722.31;5022948;28;20033;-38
2022/06/18 00:24:30;;;;;;;6.65;5.25;;;;;;;14.80;76.11;93726.03;5032838;28;20141;-38
2022/06/18 00:26:56;;;;;;;7.72;5.45;;;;;;;14.96;75.53;93726.66;5032445;28;20037;-37
2022/06/18 00:29:22;;;;;;;5.97;5.43;;;;;;;14.95;75.48;93722.38;5033022;28;20029;-38
2022/06/18 00:31:47;;;;;;;6.80;5.38;;;;;;;14.83;74.73;93708.25;5032791;28;20637;-38
2022/06/18 00:34:14;;;;;;;9.63;5.32;;;;;;;14.83;74.83;93719.34;5032740;28;20025;-38
2022/06/18 00:36:41;;;;;;;5.57;4.95;;;;;;;14.82;74.26;93715.09;5032543;28;20037;-38
2022/06/18 00:39:10;;;;;;;5.22;4.68;;;;;;;14.88;73.21;93715.59;5032969;28;20057;-38
2022/06/18 00:41:36;;;;;;;5.38;4.88;;;;;;;14.70;73.47;93718.91;5031372;28;20029;-37
2022/06/18 00:44:05;;;;;;;6.03;5.22;;;;;;;14.83;73.51;93722.13;5032400;28;20033;-37
2022/06/18 00:46:52;;;;;;;;;;;;;;;14.76;73.32;93722.94;5032473;28;20033;-37
2022/06/18 00:49:31;;;;;;;7.63;5.60;;;;;;;14.80;73.82;93725.31;5031484;28;19932;-37
2022/06/18 00:52:10;;;;;;;8.80;5.65;;;;;;;14.57;74.32;93697.72;5031593;28;20455;-37
2022/06/18 00:54:45;;;;;;;8.93;5.38;;;;;;;14.75;74.22;93720.72;5030996;28;20057;-37
2022/06/18 00:57:21;;;;;;;6.22;5.68;;;;;;;14.46;75.20;93714.13;5031405;28;20060;-37
2022/06/18 01:00:00;;;;;;;10.15;6.93;;;;;;;14.29;75.68;93720.38;5030818;28;20121;-37
2022/06/18 01:02:37;;;;;;;6.30;5.68;;;;;;;14.32;75.38;93716.44;5031136;28;20069;-37
2022/06/18 01:05:23;;;;;;;6.63;5.43;;;;;;;14.26;75.16;93713.88;5032412;28;20044;-37
2022/06/18 01:07:55;;;;;;;5.82;5.05;;;;;;;14.31;74.41;93714.97;5032161;28;20699;-37
2022/06/18 01:10:29;;;;;;;5.57;4.65;;;;;;;14.36;73.95;93711.97;5031179;28;20241;-37
2022/06/18 01:12:55;;;;;;;8.88;5.28;;;;;;;14.41;73.43;93713.03;5031612;28;20490;-37
2022/06/18 01:15:21;;;;;;;6.50;4.97;;;;;;;14.25;73.86;93711.66;5030172;28;20037;-37
2022/06/18 01:17:49;;;;;;;5.78;5.28;;;;;;;14.17;74.17;93717.25;5031797;28;20040;-37
2022/06/18 01:20:14;;;;;;;7.00;5.30;;;;;;;14.21;74.42;93708.53;5032160;28;20034;-37
2022/06/18 01:23:13;;;;;;;8.25;5.53;;;;;;;14.25;75.13;93708.88;5031706;28;20422;-37
2022/06/18 01:25:39;;;;;;;6.18;5.60;;;;;;;14.26;75.81;93702.75;5030634;28;20506;-37
2022/06/18 01:28:04;;;;;;;9.32;6.10;;;;;;;14.30;75.97;93697.56;5030865;28;20033;-37
2022/06/18 01:30:37;;;;;;;10.60;7.13;;;;;;;14.13;77.36;93703.03;5031111;28;20466;-37
2022/06/18 01:33:06;;;;;;;8.05;7.25;;;;;;;14.36;77.47;93705.66;5030073;28;20086;-37
2022/06/18 01:35:31;;;;;;;;;;;;;;;14.38;77.43;93703.78;5030908;28;20029;-37
2022/06/18 01:37:57;;;;;;;13.70;7.25;;;;;;;14.37;77.95;93694.00;5030718;28;19995;-36
2022/06/18 01:40:28;;;;;;;7.18;6.47;;;;;;;14.38;77.23;93703.78;5031466;28;20040;-36
2022/06/18 01:42:55;;;;;;;8.27;6.30;;;;;;;14.38;77.34;93697.50;5030518;28;20053;-36
2022/06/18 01:45:28;;;;;;;10.75;5.93;;;;;;;14.36;77.31;93700.84;5030163;28;20035;-36
2022/06/18 01:47:58;;;;;;;10.20;7.25;;;;;;;14.35;77.73;93701.41;5030109;28;20574;-37
2022/06/18 01:50:30;;;;;;;7.40;6.70;;;;;;;14.46;77.57;93708.56;5030182;28;20029;-37
2022/06/18 01:53:09;;;;;;;8.65;6.90;;;;;;;14.51;77.74;93704.81;5029267;28;20029;-38
2022/06/18 01:55:42;;;;;;;;;;;;;;;14.51;77.76;93705.53;5030573;28;20476;-37
2022/06/18 01:58:12;;;;;;;6.30;5.70;;;;;;;14.61;77.81;93709.19;5030128;28;20341;-37
2022/06/18 02:00:41;;;;;;;12.43;6.32;;;;;;;14.67;76.54;93706.91;5031366;28;20029;-37
2022/06/18 02:03:06;;;;;;;7.70;6.25;;;;;;;14.67;75.60;93709.66;5030321;28;20026;-37
2022/06/18 02:05:33;;;;;;;7.30;6.30;;;;;;;14.71;75.60;93695.38;5030956;28;20127;-37
2022/06/18 02:07:59;;;;;;;10.02;6.28;;;;;;;14.63;74.89;93687.09;5031295;28;20033;-37
2022/06/18 02:10:31;;;;;;;12.43;7.00;;;;;;;14.69;75.17;93686.84;5029193;28;20090;-37
2022/06/18 02:13:00;;;;;;;6.57;5.82;;;;;;;14.49;75.65;93693.53;5029630;28;20029;-37
2022/06/18 02:15:34;;;;;;;7.57;5.90;;;;;;;14.65;75.83;93697.66;5012456;28;20469;-37
2022/06/18 02:18:05;;;;;;;6.32;5.72;;;;;;;14.59;76.15;93700.66;5011408;28;20029;-37
2022/06/18 02:20:34;;;;;;;7.72;6.38;;;;;;;14.65;77.04;93703.22;5011360;28;20030;-37
2022/06/18 02:23:00;;;;;;;8.27;6.25;;;;;;;14.53;76.48;93679.97;5010932;28;20041;-38
2022/06/18 02:25:28;;;;;;;7.43;5.70;;;;;;;14.71;75.56;93712.03;5018904;28;20033;-37
2022/06/18 02:28:02;;;;;;;7.40;5.50;;;;;;;14.60;75.69;93707.69;5033326;28;20061;-37
2022/06/18 02:30:30;;;;;;;9.18;6.07;;;;;;;14.50;75.58;93684.63;5029593;28;20056;-37
2022/06/18 02:33:03;;;;;;;7.43;5.90;;;;;;;14.65;75.97;93714.31;5030854;28;20040;-37
2022/06/18 02:35:32;;;;;;;7.28;6.28;;;;;;;14.58;75.97;93704.75;5029373;28;20025;-37
2022/06/18 02:37:58;;;;;;;7.78;6.20;;;;;;;14.66;76.21;93704.69;5030825;28;20035;-37
2022/06/18 02:40:26;;;;;;;6.75;6.10;;;;;;;14.55;76.98;93703.13;5045145;28;20071;-37
2022/06/18 02:42:54;;;;;;;7.20;6.50;;;;;;;14.71;76.12;93704.44;5029150;28;20033;-37
2022/06/18 02:45:21;;;;;;;9.02;6.35;;;;;;;14.65;76.50;93706.72;5029172;28;20505;-37
2022/06/18 02:47:47;;;;;;;7.47;6.00;;;;;;;14.73;76.34;93712.19;5030637;28;20108;-37
2022/06/18 02:50:14;;;;;;;7.20;6.45;;;;;;;14.54;77.45;93709.22;5030353;28;20028;-37
2022/06/18 02:52:44;;;;;;;7.07;6.47;;;;;;;14.58;77.03;93704.00;5029197;28;20041;-37
2022/06/18 02:55:28;;;;;;;7.03;6.32;;;;;;;14.69;76.40;93704.28;5030195;28;20135;-37
2022/06/18 02:58:08;;;;;;;9.23;6.13;;;;;;;14.67;76.42;93700.59;5030212;28;20029;-37
2022/06/18 03:00:36;;;;;;;8.70;6.32;;;;;;;14.61;76.47;93678.59;5030476;28;20079;-37
2022/06/18 03:03:03;;;;;;;8.88;6.93;;;;;;;14.47;78.53;93702.44;5028314;28;20109;-37
2022/06/18 03:05:29;;;;;;;13.07;6.88;;;;;;;14.50;78.75;93701.31;5029948;28;20034;-37
2022/06/18 03:07:55;;;;;;;9.38;7.35;;;;;;;14.59;78.63;93706.22;5028863;28;20072;-37
2022/06/18 03:13:05;;;;;;;7.15;6.30;;;;;;;14.59;78.67;93702.72;5029968;28;20032;-37
2022/06/18 03:15:30;;;;;;;8.60;6.45;;;;;;;14.70;78.44;93702.25;5030286;28;20029;-37
2022/06/18 03:17:58;;;;;;;7.35;6.65;;;;;;;14.65;79.12;93706.72;5029951;28;20032;-37
2022/06/18 03:20:40;;;;;;;8.13;6.85;;;;;;;14.82;78.82;93706.00;5028142;28;20036;-37
2022/06/18 03:23:06;;;;;;;6.60;6.00;;;;;;;14.89;78.51;93708.72;5028852;28;20494;-37
2022/06/18 03:25:31;;;;;;;7.35;6.57;;;;;;;14.90;78.54;93701.13;5028911;28;20105;-37
2022/06/18 03:27:57;;;;;;;9.50;6.55;;;;;;;14.94;78.51;93699.41;5030245;28;20030;-37
2022/06/18 03:30:22;;;;;;;8.10;6.22;;;;;;;14.93;78.85;93716.66;5028923;28;20055;-37
2022/06/18 03:32:48;;;;;;;6.40;5.90;;;;;;;14.94;77.27;93710.50;5029822;28;20515;-37
2022/06/18 03:35:13;;;;;;;6.60;5.90;;;;;;;14.98;76.87;93712.91;5029783;28;20064;-37
2022/06/18 03:37:39;;;;;;;7.28;6.10;;;;;;;14.80;77.13;93680.81;5029150;28;20030;-38
2022/06/18 03:40:05;;;;;;;7.43;6.72;;;;;;;14.90;77.52;93701.84;5030052;28;20025;-37
2022/06/18 03:42:30;;;;;;;7.45;6.43;;;;;;;14.93;77.49;93700.72;5029114;28;20128;-37
2022/06/18 03:44:55;;;;;;;7.38;6.30;;;;;;;15.04;78.06;93697.47;5028987;28;20029;-37
2022/06/18 03:47:21;;;;;;;10.90;7.63;;;;;;;14.98;78.07;93687.88;5029947;28;20025;-37
2022/06/18 03:49:47;;;;;;;15.70;10.35;;;;;;;15.04;78.92;93699.50;5028839;28;20028;-37
2022/06/18 03:52:12;;;;;;;27.23;10.90;;;;;;;15.11;79.19;93693.13;5028950;28;20060;-37
2022/06/18 03:54:37;;;;;;;24.25;12.27;;;;;;;15.14;79.36;93701.03;5030103;28;20124;-37
2022/06/18 03:57:03;;;;;;;33.25;12.75;;;;;;;15.22;79.93;93695.41;5033683;28;20014;-37
2022/06/18 03:59:29;;;;;;;16.42;11.98;;;;;;;15.06;81.51;93702.44;5033490;28;20022;-37
2022/06/18 04:01:54;;;;;;;16.33;12.82;;;;;;;15.16;81.52;93692.13;5032735;28;20040;-37
2022/06/18 04:04:20;;;;;;;17.25;13.02;;;;;;;15.23;81.17;93702.44;5033308;28;20363;-37
2022/06/18 04:06:45;;;;;;;19.92;12.68;;;;;;;15.00;82.02;93702.69;5032534;28;20040;-37
2022/06/18 04:09:11;;;;;;;21.33;11.48;;;;;;;15.06;82.27;93699.66;5033484;28;20494;-37
2022/06/18 04:11:37;;;;;;;13.45;11.25;;;;;;;15.05;82.95;93685.00;5033197;28;20083;-37
2022/06/18 04:14:03;;;;;;;16.67;13.30;;;;;;;15.13;83.53;93699.59;5019335;28;20590;-37
2022/06/18 04:16:29;;;;;;;14.52;13.02;;;;;;;15.17;83.73;93702.69;5012942;28;20021;-36
2022/06/18 04:18:54;;;;;;;15.70;13.63;;;;;;;15.19;83.52;93691.72;5013226;28;20573;-37
2022/06/18 04:21:20;;;;;;;14.25;11.55;;;;;;;15.29;83.92;93696.63;5030088;28;20612;-37
2022/06/18 04:23:45;;;;;;;14.43;10.95;;;;;;;15.12;83.97;93680.66;5032913;28;20037;-37
2022/06/18 04:26:11;;;;;;;13.48;10.23;;;;;;;15.20;83.64;93698.03;5032862;28;20030;-37
2022/06/18 04:28:37;;;;;;;14.38;11.23;;;;;;;15.35;83.11;93697.13;5033170;28;20022;-37
2022/06/18 04:31:03;;;;;;;14.63;11.15;;;;;;;15.41;83.19;93692.03;5032783;28;20103;-37
2022/06/18 04:33:29;;;;;;;12.00;9.90;;;;;;;15.51;82.16;93690.06;5033143;28;20018;-37
2022/06/18 04:35:55;;;;;;;9.32;6.65;;;;;;;15.57;80.31;93688.50;5032746;28;20025;-37
2022/06/18 04:38:22;;;;;;;8.13;7.35;;;;;;;15.65;78.27;93689.16;5032966;28;20044;-37
2022/06/18 04:40:48;;;;;;;10.63;7.45;;;;;;;15.74;79.01;93680.13;5032622;28;20022;-37
2022/06/18 04:56:10;;;;;;;7.05;4.28;;;;;;;16.95;66.69;93695.00;5118339;27;20640;-39
2022/06/18 04:58:35;;;;;;;7.47;4.35;;;;;;;16.87;66.67;93693.66;5107879;28;20028;-39
2022/06/18 05:01:01;;;;;;;8.60;4.80;;;;;;;16.88;69.25;93690.28;5104978;28;20099;-39
2022/06/18 05:03:27;;;;;;;3.75;3.33;;;;;;;16.88;68.07;93695.13;5103972;28;20016;-39
2022/06/18 05:05:52;;;;;;;4.97;4.28;;;;;;;16.85;68.44;93685.16;5107584;28;20023;-39
2022/06/18 05:08:18;;;;;;;15.57;4.80;;;;;;;16.98;68.26;93691.03;5108418;28;20023;-39
2022/06/18 05:10:44;;;;;;;5.20;3.90;;;;;;;17.03;68.24;93690.00;5107879;28;20028;-40
2022/06/18 05:13:11;;;;;;;4.75;3.80;;;;;;;17.10;67.55;93691.19;5107172;28;20024;-39
2022/06/18 05:15:37;;;;;;;6.85;4.47;;;;;;;17.27;67.07;93696.63;5107093;28;20043;-39
2022/06/18 05:18:03;;;;;;;4.25;3.80;;;;;;;17.28;67.21;93701.63;5105545;28;20032;-42
2022/06/18 05:20:29;;;;;;;4.40;3.83;;;;;;;17.26;65.54;93695.88;5107430;28;20031;-39
2022/06/18 05:22:54;;;;;;;4.25;3.38;;;;;;;17.37;65.20;93705.72;5107668;28;20038;-39
2022/06/18 05:25:20;;;;;;;4.20;3.75;;;;;;;17.39;65.89;93709.41;5107237;28;20062;-39
2022/06/18 05:27:46;;;;;;;4.30;3.80;;;;;;;17.44;65.38;93708.38;5107359;28;20111;-39
2022/06/18 05:30:15;;;;;;;6.57;3.40;;;;;;;17.47;65.83;93709.28;5107164;28;20024;-40
2022/06/18 05:32:41;;;;;;;4.68;3.97;;;;;;;17.55;65.32;93709.88;5105524;28;20059;-39
2022/06/18 05:35:07;;;;;;;6.00;3.72;;;;;;;17.59;65.51;93706.63;5107180;28;20055;-40
2022/06/18 05:37:34;;;;;;;6.25;3.78;;;;;;;17.61;65.38;93710.31;5107293;28;20019;-39
2022/06/18 05:40:00;;;;;;;5.70;3.58;;;;;;;17.68;64.43;93706.63;5106047;28;20020;-39
2022/06/18 05:42:25;;;;;;;7.07;3.97;;;;;;;17.73;64.79;93713.25;5107177;28;20113;-38
2022/06/18 05:44:51;;;;;;;5.00;3.28;;;;;;;17.73;64.10;93719.59;5107140;28;20501;-38
2022/06/18 05:47:22;;;;;;;11.05;3.97;;;;;;;17.85;65.10;93714.84;5106811;28;20023;-39
2022/06/18 05:49:47;;;;;;;8.65;3.42;;;;;;;17.96;63.72;93717.03;5107088;28;20051;-38
2022/06/18 05:52:13;;;;;;;4.18;3.50;;;;;;;18.01;65.04;93726.44;5102754;28;20526;-40
2022/06/18 05:54:38;;;;;;;4.45;3.88;;;;;;;18.07;64.31;93724.81;5086229;28;20044;-39
2022/06/18 05:57:04;;;;;;;3.80;3.42;;;;;;;18.12;64.78;93721.00;5073385;28;20024;-40
2022/06/18 05:59:30;;;;;;;4.20;3.90;;;;;;;18.24;63.56;93714.75;5089161;28;20622;-39
2022/06/18 06:01:56;;;;;;;5.03;3.90;;;;;;;18.25;63.02;93716.97;5092936;28;20119;-39
2022/06/18 06:04:23;;;;;;;4.68;3.50;;;;;;;18.30;62.89;93723.59;5091482;28;20024;-39
2022/06/18 06:06:49;;;;;;;3.97;3.58;;;;;;;18.32;62.11;93723.72;5092336;28;20462;-40
2022/06/18 06:11:28;;;;;;;12.25;4.25;;;;;;;18.32;62.61;93721.66;5091203;28;20092;-40
2022/06/18 06:12:04;;;;;;;5.57;3.85;;;;;;;18.42;63.44;93730.00;5101154;28;20516;-39
2022/06/18 06:14:30;;;;;;;7.00;4.20;;;;;;;18.45;62.66;93731.66;5090268;28;20564;-39
2022/06/18 06:16:57;;;;;;;4.47;3.88;;;;;;;18.53;62.89;93723.81;5078464;28;20119;-39
2022/06/18 06:19:23;;;;;;;9.85;4.60;;;;;;;18.49;62.43;93717.94;5072331;28;20024;-39
2022/06/18 06:21:49;;;;;;;10.50;4.35;;;;;;;18.60;62.27;93725.72;5072671;28;20500;-39
2022/06/18 06:24:14;;;;;;;8.23;4.18;;;;;;;18.66;62.42;93728.91;5092069;28;20077;-39
2022/06/18 06:26:40;;;;;;;7.97;3.72;;;;;;;18.80;62.64;93724.28;5112890;27;20085;-39
2022/06/18 06:29:06;;;;;;;6.28;3.75;;;;;;;18.86;64.10;93727.50;5096145;28;20024;-39
2022/06/18 06:31:32;;;;;;;4.80;4.30;;;;;;;18.95;62.74;93723.19;5085532;28;20088;-39
2022/06/18 06:33:57;;;;;;;5.55;3.95;;;;;;;18.98;61.95;93728.31;5110479;28;20024;-38
2022/06/18 06:36:22;;;;;;;6.45;4.53;;;;;;;19.00;62.29;93728.44;5111940;28;20487;-39
2022/06/18 06:38:49;;;;;;;6.15;3.63;;;;;;;19.15;61.46;93727.31;5112623;28;20032;-39
2022/06/18 06:41:21;;;;;;;5.20;3.63;;;;;;;19.18;60.86;93731.72;5111238;28;20056;-38
2022/06/18 06:43:47;;;;;;;7.05;4.07;;;;;;;19.30;61.42;93735.31;5109834;28;20028;-38
2022/06/18 06:46:15;;;;;;;4.75;3.50;;;;;;;19.31;60.63;93729.16;5111153;28;20484;-39
2022/06/18 06:48:41;;;;;;;5.73;3.97;;;;;;;19.40;61.40;93736.78;5111446;28;20035;-39
2022/06/18 06:51:21;;;;;;;7.28;3.30;;;;;;;19.47;60.97;93738.63;5086527;28;20412;-39
2022/06/18 06:53:46;;;;;;;5.20;3.63;;;;;;;19.52;60.25;93731.22;5076270;28;20024;-39
2022/06/18 06:58:58;;;;;;;5.32;3.80;;;;;;;19.61;60.12;93736.75;5084915;28;20039;-38
2022/06/18 07:01:24;;;;;;;4.13;3.60;;;;;;;19.64;58.54;93734.84;5069797;28;20114;-39
2022/06/18 07:03:50;;;;;;;11.02;3.72;;;;;;;19.55;58.98;93721.63;5069224;28;20064;-39
2022/06/18 07:06:16;;;;;;;4.57;3.15;;;;;;;19.71;58.59;93735.97;5077199;28;20035;-39
2022/06/18 07:08:43;;;;;;;6.03;3.60;;;;;;;19.91;58.41;93729.56;5069300;28;20032;-38
2022/06/18 07:11:08;;;;;;;5.25;3.65;;;;;;;20.18;58.46;93731.97;5071497;28;20039;-39
2022/06/18 07:13:34;;;;;;;6.45;3.90;;;;;;;20.34;57.35;93727.41;5080953;28;20032;-39
2022/06/18 07:15:59;;;;;;;7.35;3.67;;;;;;;20.39;55.83;93713.03;5091493;28;20039;-39
2022/06/18 07:18:31;;;;;;;4.22;3.20;;;;;;;20.83;55.79;93733.94;5090204;28;20025;-39
2022/06/18 07:20:57;;;;;;;3.55;3.10;;;;;;;21.12;54.63;93731.50;5075795;28;20028;-39
2022/06/18 07:23:22;;;;;;;5.70;3.90;;;;;;;21.39;52.85;93731.72;5071073;28;20024;-39
2022/06/18 07:25:48;;;;;;;6.00;3.20;;;;;;;21.43;52.90;93731.22;5071388;28;20073;-39
2022/06/18 07:28:13;;;;;;;8.25;3.30;;;;;;;21.52;52.59;93741.56;5073045;28;20032;-40
2022/06/18 07:30:39;;;;;;;4.07;3.45;;;;;;;21.63;53.59;93747.19;5081255;28;20056;-39
2022/06/18 07:33:05;;;;;;;4.55;3.13;;;;;;;21.70;53.31;93748.25;5079358;28;20504;-39
2022/06/18 07:35:34;;;;;;;3.50;3.20;;;;;;;21.72;52.90;93749.09;5098997;28;20488;-39
2022/06/18 07:38:00;;;;;;;;;;;;;;;21.60;52.72;93750.47;5111932;28;20077;-38
2022/06/18 07:40:29;;;;;;;4.57;3.20;;;;;;;21.62;54.11;93748.50;5088072;28;20308;-40
2022/06/18 07:42:55;;;;;;;7.50;3.88;;;;;;;21.62;53.62;93750.56;5072909;28;20062;-39
2022/06/18 07:45:24;;;;;;;3.58;3.28;;;;;;;21.52;54.75;93753.56;5082515;28;20024;-39
2022/06/18 07:47:49;;;;;;;;;;;;;;;21.47;53.93;93759.53;5084052;28;20031;-40
2022/06/18 07:50:17;;;;;;;4.57;4.18;;;;;;;21.41;56.01;93750.75;5076980;28;20431;-40
2022/06/18 07:52:44;;;;;;;4.93;4.00;;;;;;;21.95;54.66;93756.75;5078123;28;20552;-39
2022/06/18 07:55:24;;;;;;;4.75;3.50;;;;;;;22.36;51.71;93749.22;5077612;28;20071;-39
2022/06/18 07:57:50;;;;;;;4.57;3.42;;;;;;;22.44;51.72;93752.47;5073801;28;20027;-39
2022/06/18 08:00:19;;;;;;;6.78;4.30;;;;;;;22.50;51.93;93749.28;5078182;28;20020;-38
2022/06/18 08:02:45;;;;;;;7.85;4.22;;;;;;;22.57;52.96;93751.78;5077058;28;20236;-38
2022/06/18 08:05:12;;;;;;;3.95;3.47;;;;;;;22.43;51.77;93747.47;5077873;28;20209;-38
2022/06/18 08:07:38;;;;;;;4.38;3.95;;;;;;;22.27;52.58;93755.00;5076116;28;20027;-38
2022/06/18 08:10:05;;;;;;;8.00;4.20;;;;;;;22.32;53.18;93760.25;5076459;28;20708;-38
2022/06/18 08:12:32;;;;;;;6.25;4.00;;;;;;;22.41;53.63;93756.53;5077362;28;20659;-38
2022/06/18 08:14:58;;;;;;;5.03;3.92;;;;;;;22.35;52.67;93752.66;5074162;28;20017;-38
2022/06/18 08:17:25;;;;;;;5.68;4.25;;;;;;;22.18;53.04;93758.72;5075750;28;20668;-38
2022/06/18 08:19:50;;;;;;;10.40;4.88;;;;;;;21.97;53.40;93753.31;5077688;28;20038;-38
2022/06/18 08:22:16;;;;;;;4.20;3.88;;;;;;;22.03;54.02;93750.84;5076653;28;20028;-38
2022/06/18 08:24:41;;;;;;;5.38;4.07;;;;;;;23.16;53.03;93749.31;5077181;28;20035;-39
2022/06/18 08:27:07;;;;;;;6.03;4.25;;;;;;;23.34;51.63;93750.28;5076876;28;20024;-39
2022/06/18 08:29:34;;;;;;;4.68;4.28;;;;;;;23.28;50.88;93742.19;5079220;28;20024;-39
2022/06/18 08:32:00;;;;;;;12.07;3.90;;;;;;;24.14;49.32;93747.97;5080077;28;20111;-39
2022/06/18 08:34:26;;;;;;;4.45;3.67;;;;;;;24.88;45.84;93747.97;5079059;28;20028;-39
2022/06/18 08:36:51;;;;;;;4.82;3.83;;;;;;;24.83;48.07;93743.50;5077938;28;20471;-38
2022/06/18 08:39:17;;;;;;;6.03;3.83;;;;;;;25.19;46.09;93742.31;5075649;28;20090;-38
2022/06/18 08:42:08;;;;;;;4.15;3.75;;;;;;;26.67;44.05;93738.66;5076205;28;20544;-38
2022/06/18 08:44:48;;;;;;;4.60;3.90;;;;;;;27.82;41.02;93733.69;5079238;28;20095;-39
2022/06/18 08:47:45;;;;;;;3.63;3.17;;;;;;;29.41;39.06;93733.81;5086829;28;21601;-39
2022/06/18 08:50:19;;;;;;;4.63;3.67;;;;;;;29.51;37.58;93736.22;5080395;28;20028;-39
2022/06/18 08:52:54;;;;;;;23.92;4.47;;;;;;;30.15;34.40;93729.44;5079588;28;20039;-39
2022/06/18 08:55:25;;;;;;;3.28;2.97;;;;;;;30.64;35.70;93734.25;5077834;28;20040;-39
2022/06/18 08:58:06;;;;;;;4.30;3.45;;;;;;;30.08;35.21;93736.38;5079888;28;20508;-39
2022/06/18 09:00:35;;;;;;;3.67;3.33;;;;;;;30.39;35.65;93740.72;5079874;28;20024;-39
2022/06/18 09:03:19;;;;;;;3.58;3.28;;;;;;;30.69;36.09;93733.63;5079618;28;20494;-39
2022/06/18 09:06:08;;;;;;;5.57;4.07;;;;;;;31.44;32.94;93729.66;5078786;28;20037;-39
2022/06/18 09:08:53;;;;;;;8.60;5.45;;;;;;;32.31;32.32;93729.19;5077993;28;20570;-39
2022/06/18 09:11:21;;;;;;;6.60;4.20;;;;;;;32.54;30.99;93731.03;5068697;28;20035;-39
2022/06/18 09:14:09;;;;;;;9.80;6.18;;;;;;;32.59;29.59;93723.97;5085485;28;20031;-40
2022/06/18 09:16:45;;;;;;;5.93;3.42;;;;;;;32.67;31.70;93731.94;5089827;28;20106;-43
2022/06/18 09:19:16;;;;;;;6.88;3.53;;;;;;;32.36;32.56;93730.69;5084377;28;20027;-46
2022/06/18 09:21:48;;;;;;;5.60;3.40;;;;;;;32.47;33.60;93731.56;5076311;28;20033;-46
2022/06/18 09:24:22;;;;;;;4.65;3.10;;;;;;;32.89;32.02;93727.28;5075181;28;20120;-45
2022/06/18 09:26:50;;;;;;;5.55;3.20;;;;;;;33.24;29.78;93719.94;5073816;28;20133;-46
2022/06/18 09:29:16;;;;;;;;;;;;;;;33.60;29.53;93719.69;5089420;28;20035;-55
2022/06/18 09:31:53;;;;;;;4.80;3.10;;;;;;;34.07;28.78;93721.69;5087059;28;20337;-50
2022/06/18 09:34:26;;;;;;;3.40;3.10;;;;;;;33.34;29.31;93719.34;5089351;28;20032;-46
2022/06/18 09:36:56;;;;;;;3.53;3.15;;;;;;;33.40;31.71;93711.56;5088910;28;20031;-47
2022/06/18 09:39:32;;;;;;;4.15;2.88;;;;;;;33.40;29.74;93717.28;5089087;28;20031;-48
2022/06/18 09:42:04;;;;;;;4.22;3.25;;;;;;;33.30;29.73;93710.69;5071814;28;20497;-46
2022/06/18 09:45:05;;;;;;;3.70;3.40;;;;;;;31.44;30.92;93718.22;5091108;28;20028;-48
2022/06/18 09:47:40;;;;;;;4.45;3.30;;;;;;;30.86;33.74;93708.38;5081362;28;20044;-48
2022/06/18 09:50:17;;;;;;;4.30;3.67;;;;;;;31.51;33.61;93716.94;5079282;28;20029;-48
2022/06/18 09:52:45;;;;;;;3.72;3.33;;;;;;;31.80;32.54;93703.94;5080490;28;20513;-48
2022/06/18 09:55:23;;;;;;;4.10;3.38;;;;;;;31.27;32.33;93707.88;5071534;28;20044;-46
2022/06/18 09:57:52;;;;;;;3.73;3.10;;;;;;;31.43;30.52;93706.09;5089996;28;20035;-61
2022/06/18 10:00:22;;;;;;;3.13;2.67;;;;;;;31.91;29.63;93711.28;5084450;28;20077;-59
2022/06/18 10:03:03;;;;;;;14.73;3.33;;;;;;;32.21;31.77;93708.25;5079650;28;20101;-63
2022/06/18 10:08:25;;;;;;;4.82;2.90;;;;;;;32.79;29.15;93704.25;5070939;28;20058;-57
2022/06/18 10:11:07;;;;;;;3.05;2.53;;;;;;;32.84;28.02;93711.47;5080100;28;20037;-57
2022/06/18 10:13:35;;;;;;;3.67;2.90;;;;;;;33.67;29.20;93709.75;5088484;28;20016;-57
2022/06/18 10:16:03;;;;;;;2.95;2.65;;;;;;;33.10;29.05;93710.41;5091667;28;20067;-58
2022/06/18 10:18:49;;;;;;;4.20;3.00;;;;;;;33.20;27.86;93702.69;5090835;28;20067;-58
2022/06/18 10:21:50;;;;;;;2.28;2.08;;;;;;;33.45;27.71;93710.19;5071320;28;20036;-56
2022/06/18 10:24:21;;;;;;;3.80;3.00;;;;;;;33.29;26.56;93720.69;5071536;28;20043;-57
2022/06/18 10:26:55;;;;;;;3.47;3.10;;;;;;;32.79;27.72;93715.69;5072670;28;20024;-56
2022/06/18 10:29:24;;;;;;;3.55;2.72;;;;;;;32.83;27.63;93710.00;5072536;28;20032;-58
2022/06/18 10:31:53;;;;;;;;;;;;;;;33.39;27.32;93718.72;5072802;28;20031;-58
2022/06/18 10:34:49;;;;;;;2.55;2.15;;;;;;;32.90;27.12;93719.41;5080584;28;20014;-58
2022/06/18 10:37:18;;;;;;;5.07;2.90;;;;;;;31.81;28.02;93722.53;5092558;28;20031;-57
2022/06/18 10:40:02;;;;;;;;;;;;;;;30.75;30.09;93724.53;5087091;28;20509;-57
2022/06/18 10:43:12;;;;;;;3.45;2.97;;;;;;;29.90;31.51;93724.50;5071815;28;19908;-56
2022/06/18 10:46:01;;;;;;;5.43;3.28;;;;;;;29.05;32.72;93727.78;5077582;28;20150;-57
2022/06/18 10:48:27;;;;;;;;;;;;;;;28.96;34.79;93726.09;5083499;28;20103;-58
2022/06/18 10:50:55;;;;;;;3.53;2.88;;;;;;;29.57;32.23;93725.72;5092481;28;19931;-58
2022/06/18 10:53:24;;;;;;;6.63;3.05;;;;;;;30.20;34.31;93727.41;5091812;28;20054;-59
2022/06/18 10:56:03;;;;;;;4.40;2.80;;;;;;;30.63;31.68;93736.34;5091943;28;20586;-57
2022/06/18 10:58:28;;;;;;;;;;;;;;;29.48;31.92;93740.41;5092803;28;20028;-59
2022/06/18 11:01:00;;;;;;;3.78;3.47;;;;;;;28.50;34.44;93736.72;5091827;28;20415;-58
2022/06/18 11:03:29;;;;;;;4.00;3.40;;;;;;;27.78;34.79;93740.69;5088448;28;20016;-59
2022/06/18 11:05:55;;;;;;;3.65;3.30;;;;;;;27.10;38.06;93737.44;5085492;28;20047;-59
2022/06/18 11:08:22;;;;;;;8.15;4.05;;;;;;;27.03;38.83;93742.16;5080760;28;20432;-60
2022/06/18 11:10:54;;;;;;;5.47;3.97;;;;;;;27.13;38.51;93739.72;5076319;28;20121;-59
2022/06/18 11:13:22;;;;;;;4.75;3.33;;;;;;;26.83;39.00;93749.91;5086448;28;20026;-58
2022/06/18 11:15:47;;;;;;;11.45;4.28;;;;;;;26.47;42.12;93742.78;5112024;28;20031;-58
2022/06/18 11:18:19;;;;;;;5.00;3.88;;;;;;;26.33;41.50;93733.75;5111996;28;20032;-58
2022/06/18 11:21:04;;;;;;;4.35;3.83;;;;;;;26.33;42.02;93745.78;5111963;28;20027;-58
2022/06/18 11:23:32;;;;;;;4.55;4.00;;;;;;;26.57;42.43;93732.59;5111846;28;20038;-57
2022/06/18 11:25:57;;;;;;;4.45;3.67;;;;;;;26.82;41.28;93731.44;5110873;28;20461;-58
2022/06/18 11:28:43;;;;;;;4.43;4.03;;;;;;;27.04;40.56;93730.19;5092897;27;20054;-57
2022/06/18 11:31:13;;;;;;;6.78;4.50;;;;;;;27.09;43.20;93716.91;5070208;28;20024;-59
2022/06/18 11:33:55;;;;;;;3.63;3.28;;;;;;;26.97;38.58;93719.28;5089041;28;20028;-57
2022/06/18 11:36:33;;;;;;;9.43;4.55;;;;;;;26.38;40.20;93710.59;5090058;28;20028;-59
2022/06/18 11:39:00;;;;;;;12.93;4.63;;;;;;;25.87;42.25;93710.63;5091230;28;20049;-59
2022/06/18 11:41:33;;;;;;;5.45;4.00;;;;;;;25.38;43.84;93713.47;5090998;28;20430;-59
2022/06/18 11:44:12;;;;;;;6.90;5.38;;;;;;;24.88;44.75;93721.81;5090034;28;20070;-58
2022/06/18 11:47:01;;;;;;;6.00;4.10;;;;;;;24.42;44.81;93714.72;5091671;28;20093;-58
2022/06/18 11:49:50;;;;;;;4.50;4.10;;;;;;;24.54;45.03;93721.66;5089686;28;20030;-58
2022/06/18 11:52:33;;;;;;;4.30;4.00;;;;;;;25.07;47.85;93729.75;5088613;28;20025;-59
2022/06/18 11:55:04;;;;;;;8.60;3.92;;;;;;;25.43;44.51;93726.44;5079687;28;20040;-57
2022/06/18 11:57:41;;;;;;;4.13;3.67;;;;;;;25.45;47.65;93729.34;5104316;28;20394;-58
2022/06/18 12:00:19;;;;;;;8.07;3.70;;;;;;;25.45;43.31;93722.97;5102453;28;20488;-58
2022/06/18 12:02:54;;;;;;;;;;;;;;;25.15;41.16;93744.22;5071418;28;20144;-59
2022/06/18 12:05:40;;;;;;;4.18;3.67;;;;;;;24.40;42.85;93742.88;5089376;28;19916;-57
2022/06/18 12:08:07;;;;;;;5.28;4.53;;;;;;;24.03;45.46;93743.91;5083111;28;20023;-58
2022/06/18 12:10:47;;;;;;;8.10;4.63;;;;;;;23.68;47.80;93743.56;5073225;28;20498;-58
2022/06/18 12:13:32;;;;;;;8.88;5.05;;;;;;;23.67;47.50;93752.66;5083817;28;20143;-58